Time;durP1;ratioP1;P1;durP2;ratioP2;P2;SDS_P1;SDS_P2;PMS_P1;PMS_P2;Temp;Humidity;BMP_temperature;BMP_pressure;BME280_temperature;BME280_humidity;BME280_pressure;Samples;Min_cycle;Max_cycle;Signal;HPM_P1;HPM_P2
2023/01/08 00:01:23;;;;;;;4.67;4.00;;;8.60;99.90;;;;;;5021692;28;20560;-69
2023/01/08 00:03:49;;;;;;;4.27;3.67;;;8.60;99.90;;;;;;5024931;28;20181;-69
2023/01/08 00:06:17;;;;;;;4.37;3.50;;;8.50;99.90;;;;;;5020787;28;20543;-69
2023/01/08 00:08:44;;;;;;;4.30;3.80;;;8.50;99.90;;;;;;5021952;28;20422;-70
2023/01/08 00:11:10;;;;;;;6.90;4.77;;;8.40;99.90;;;;;;5019826;28;20613;-70
2023/01/08 00:13:36;;;;;;;5.00;3.60;;;8.40;99.90;;;;;;5019564;28;20789;-69
2023/01/08 00:16:07;;;;;;;4.50;3.87;;;8.40;99.90;;;;;;5023342;28;20665;-70
2023/01/08 00:18:33;;;;;;;4.17;3.87;;;8.30;99.90;;;;;;5026073;28;20455;-69
2023/01/08 00:20:59;;;;;;;5.93;4.80;;;8.40;99.90;;;;;;5018779;28;20613;-69
2023/01/08 00:23:25;;;;;;;5.77;4.70;;;8.30;99.90;;;;;;5024908;28;20180;-69
2023/01/08 00:25:51;;;;;;;5.47;4.03;;;8.30;99.90;;;;;;5024586;28;20439;-69
2023/01/08 00:28:16;;;;;;;4.73;4.20;;;8.30;99.90;;;;;;5030299;28;20169;-70
2023/01/08 00:30:42;;;;;;;4.77;4.27;;;8.30;99.90;;;;;;5029481;28;20415;-69
2023/01/08 00:33:09;;;;;;;4.97;4.17;;;8.20;99.90;;;;;;5018451;28;20691;-70
2023/01/08 00:35:37;;;;;;;5.13;3.90;;;8.20;99.90;;;;;;5022302;28;20250;-70
2023/01/08 00:38:02;;;;;;;6.53;4.03;;;8.20;99.90;;;;;;5003260;28;20420;-69
2023/01/08 00:40:28;;;;;;;4.20;3.43;;;8.20;99.90;;;;;;5019797;28;20427;-69
2023/01/08 00:42:53;;;;;;;4.60;4.17;;;8.10;99.90;;;;;;5019616;28;20189;-69
2023/01/08 00:45:19;;;;;;;4.30;3.80;;;8.10;99.90;;;;;;5023435;28;20289;-69
2023/01/08 00:47:45;;;;;;;6.83;5.23;;;8.00;99.90;;;;;;5020066;28;20173;-70
2023/01/08 00:50:10;;;;;;;5.67;3.70;;;8.00;99.90;;;;;;5020176;28;20250;-70
2023/01/08 00:52:36;;;;;;;6.97;4.20;;;8.00;99.90;;;;;;5023075;28;20168;-69
2023/01/08 00:55:02;;;;;;;5.70;4.53;;;7.90;99.90;;;;;;5022533;28;20192;-70
2023/01/08 00:57:33;;;;;;;4.60;4.20;;;7.90;99.90;;;;;;5021946;28;20204;-70
2023/01/08 00:59:58;;;;;;;4.20;3.80;;;7.90;99.90;;;;;;5017673;28;20426;-70
2023/01/08 01:02:24;;;;;;;7.27;4.30;;;7.90;99.90;;;;;;5019722;28;20485;-70
2023/01/08 01:04:49;;;;;;;5.77;3.60;;;7.80;99.90;;;;;;5023500;28;20193;-69
2023/01/08 01:07:15;;;;;;;5.17;4.67;;;7.80;99.90;;;;;;5021461;28;20584;-70
2023/01/08 01:09:41;;;;;;;5.20;4.40;;;7.70;99.90;;;;;;5022409;28;20212;-69
2023/01/08 01:12:07;;;;;;;4.60;4.20;;;7.70;99.90;;;;;;5004534;28;20187;-69
2023/01/08 01:14:32;;;;;;;5.00;3.83;;;7.70;99.90;;;;;;5021268;28;20184;-69
2023/01/08 01:16:58;;;;;;;5.17;4.43;;;7.70;99.90;;;;;;5022918;28;20480;-70
2023/01/08 01:19:24;;;;;;;4.73;4.30;;;7.60;99.90;;;;;;5020350;28;20212;-69
2023/01/08 01:21:49;;;;;;;5.30;4.80;;;7.60;99.90;;;;;;5019351;28;20427;-68
2023/01/08 01:24:15;;;;;;;6.40;4.87;;;7.60;99.90;;;;;;5022581;28;20246;-69
2023/01/08 01:26:41;;;;;;;6.17;5.03;;;7.60;99.90;;;;;;5029066;28;20232;-69
2023/01/08 01:29:07;;;;;;;5.40;4.27;;;7.60;99.90;;;;;;5023382;28;20183;-70
2023/01/08 01:31:33;;;;;;;6.87;4.90;;;7.60;99.90;;;;;;5020379;28;20439;-70
2023/01/08 01:33:58;;;;;;;6.80;5.20;;;7.60;99.90;;;;;;5021830;28;20533;-70
2023/01/08 01:36:25;;;;;;;4.80;4.37;;;7.50;99.90;;;;;;5017695;28;20503;-70
2023/01/08 01:38:54;;;;;;;6.40;4.83;;;7.50;99.90;;;;;;5018057;28;20611;-69
2023/01/08 01:41:52;;;;;;;5.23;4.60;;;7.40;99.90;;;;;;5019894;28;20498;-69
2023/01/08 01:44:42;;;;;;;4.40;4.00;;;7.40;99.90;;;;;;4995432;28;20434;-69
2023/01/08 01:47:20;;;;;;;6.47;4.43;;;7.40;99.90;;;;;;5025189;28;20522;-70
2023/01/08 01:50:04;;;;;;;5.57;5.00;;;7.40;99.90;;;;;;5025434;28;20455;-71
2023/01/08 01:52:34;;;;;;;5.50;5.00;;;7.30;99.90;;;;;;5020379;28;20438;-70
2023/01/08 01:55:01;;;;;;;5.23;4.33;;;7.30;99.90;;;;;;5022352;28;20465;-69
2023/01/08 01:57:29;;;;;;;6.27;5.13;;;7.20;99.90;;;;;;5027119;28;20463;-70
2023/01/08 01:59:57;;;;;;;5.50;4.60;;;7.20;99.90;;;;;;5026002;28;20430;-69
2023/01/08 02:02:22;;;;;;;5.53;4.70;;;7.20;99.90;;;;;;5025825;28;20465;-69
2023/01/08 02:04:48;;;;;;;5.07;4.57;;;7.10;99.90;;;;;;5026644;28;20540;-70
2023/01/08 02:07:32;;;;;;;6.90;4.90;;;7.10;99.90;;;;;;5026481;28;20548;-70
2023/01/08 02:10:30;;;;;;;8.20;4.83;;;7.00;99.90;;;;;;5015876;28;20812;-70
2023/01/08 02:13:29;;;;;;;5.00;4.50;;;7.00;99.90;;;;;;5024985;28;20450;-70
2023/01/08 02:16:14;;;;;;;4.73;4.30;;;7.00;99.90;;;;;;5022887;28;20454;-69
2023/01/08 02:18:51;;;;;;;7.47;5.77;;;6.90;99.90;;;;;;5059872;22;20513;-68
2023/01/08 02:21:36;;;;;;;7.63;5.33;;;6.90;99.90;;;;;;5032301;28;20438;-68
2023/01/08 02:24:12;;;;;;;6.57;5.10;;;6.90;99.90;;;;;;5020094;28;20438;-68
2023/01/08 02:26:37;;;;;;;7.20;4.90;;;6.80;99.90;;;;;;5037616;28;20426;-67
2023/01/08 02:29:08;;;;;;;8.27;5.40;;;6.80;99.90;;;;;;5038211;28;20414;-67
2023/01/08 02:31:35;;;;;;;6.27;4.90;;;6.80;99.90;;;;;;5036732;28;20183;-66
2023/01/08 02:34:01;;;;;;;7.17;5.07;;;6.80;99.90;;;;;;5031451;28;20433;-67
2023/01/08 02:36:40;;;;;;;6.80;6.10;;;6.70;99.90;;;;;;5031268;28;20462;-66
2023/01/08 02:39:31;;;;;;;8.57;5.83;;;6.70;99.90;;;;;;5027978;28;20175;-66
2023/01/08 02:42:08;;;;;;;6.90;4.77;;;6.70;99.90;;;;;;5028783;28;20469;-66
2023/01/08 02:44:34;;;;;;;9.27;6.00;;;6.70;99.90;;;;;;5027006;28;20426;-67
2023/01/08 02:47:01;;;;;;;9.50;6.23;;;6.70;99.90;;;;;;5028313;28;20879;-67
2023/01/08 02:49:32;;;;;;;7.00;5.80;;;6.70;99.90;;;;;;5030688;28;20176;-68
2023/01/08 02:52:02;;;;;;;5.70;5.20;;;6.60;99.90;;;;;;5030012;28;20449;-66
2023/01/08 02:54:32;;;;;;;7.37;5.80;;;6.60;99.90;;;;;;5024813;28;20437;-67
2023/01/08 02:57:12;;;;;;;6.90;5.60;;;6.60;99.90;;;;;;5027575;28;20473;-67
2023/01/08 02:59:40;;;;;;;7.50;5.73;;;6.50;99.90;;;;;;5029035;28;20425;-66
2023/01/08 03:02:06;;;;;;;7.43;5.90;;;6.60;99.90;;;;;;5029827;28;20534;-67
2023/01/08 03:04:38;;;;;;;6.33;5.73;;;6.60;99.90;;;;;;5031303;28;20434;-68
2023/01/08 03:07:04;;;;;;;7.47;5.90;;;6.50;99.90;;;;;;5028160;28;20472;-67
2023/01/08 03:09:30;;;;;;;6.50;5.90;;;6.50;99.90;;;;;;5028879;28;20521;-68
2023/01/08 03:12:08;;;;;;;7.63;6.00;;;6.60;99.90;;;;;;5027694;28;20187;-68
2023/01/08 03:14:44;;;;;;;8.10;6.13;;;6.50;99.90;;;;;;5028280;28;20430;-67
2023/01/08 03:17:44;;;;;;;6.87;6.10;;;6.50;99.90;;;;;;5030577;28;20461;-67
2023/01/08 03:20:19;;;;;;;7.20;6.53;;;6.50;99.90;;;;;;4991825;28;20933;-68
2023/01/08 03:22:50;;;;;;;6.73;6.03;;;6.50;99.90;;;;;;5026732;28;20793;-67
2023/01/08 03:25:19;;;;;;;9.40;6.83;;;6.40;99.90;;;;;;5029372;28;20431;-67
2023/01/08 03:27:48;;;;;;;7.63;6.83;;;6.40;99.90;;;;;;5021769;28;21022;-66
2023/01/08 03:30:16;;;;;;;7.07;6.37;;;6.40;99.90;;;;;;5020781;28;20434;-66
2023/01/08 03:32:43;;;;;;;6.93;5.20;;;6.50;99.90;;;;;;5024072;28;20436;-66
2023/01/08 03:35:14;;;;;;;8.37;6.13;;;6.50;99.90;;;;;;5030241;28;20438;-67
2023/01/08 03:37:44;;;;;;;6.90;6.03;;;6.50;99.90;;;;;;5028263;28;20458;-68
2023/01/08 03:40:21;;;;;;;7.17;5.67;;;6.40;99.90;;;;;;5027160;28;20426;-68
2023/01/08 03:42:47;;;;;;;7.10;5.37;;;6.40;99.90;;;;;;5026402;28;20426;-67
2023/01/08 03:45:12;;;;;;;7.90;6.50;;;6.40;99.90;;;;;;5024575;28;20790;-67
2023/01/08 03:47:40;;;;;;;8.17;7.37;;;6.40;99.90;;;;;;5025531;28;20199;-66
2023/01/08 03:50:10;;;;;;;6.70;6.13;;;6.30;99.90;;;;;;5026221;28;20270;-65
2023/01/08 03:52:35;;;;;;;8.57;5.77;;;6.30;99.90;;;;;;5026183;28;20422;-66
2023/01/08 03:55:01;;;;;;;7.87;5.93;;;6.30;99.90;;;;;;5024236;28;20510;-66
2023/01/08 03:57:27;;;;;;;7.77;6.63;;;6.30;99.90;;;;;;5023036;28;20243;-66
2023/01/08 03:59:52;;;;;;;7.90;7.00;;;6.30;99.90;;;;;;5027542;28;20458;-67
2023/01/08 04:02:18;;;;;;;8.23;6.63;;;6.30;99.90;;;;;;5025579;28;20204;-66
2023/01/08 04:04:44;;;;;;;8.40;5.90;;;6.20;99.90;;;;;;5026320;28;20173;-67
2023/01/08 04:07:10;;;;;;;6.70;6.10;;;6.30;99.90;;;;;;5022661;28;20643;-68
2023/01/08 04:09:36;;;;;;;7.73;6.30;;;6.30;99.90;;;;;;5028532;28;20175;-68
2023/01/08 04:12:02;;;;;;;7.67;6.23;;;6.30;99.90;;;;;;5027125;28;20445;-68
2023/01/08 04:14:28;;;;;;;8.07;5.77;;;6.20;99.90;;;;;;5027327;28;22562;-67
2023/01/08 04:16:53;;;;;;;8.63;6.67;;;6.20;99.90;;;;;;5024169;28;20455;-67
2023/01/08 04:19:19;;;;;;;6.83;6.20;;;6.20;99.90;;;;;;5025936;28;20195;-68
2023/01/08 04:21:44;;;;;;;7.97;5.97;;;6.20;99.90;;;;;;5023776;28;20209;-66
2023/01/08 04:24:11;;;;;;;8.10;6.87;;;6.20;99.90;;;;;;5028179;28;20649;-67
2023/01/08 04:26:37;;;;;;;8.23;6.60;;;6.20;99.90;;;;;;5016982;28;20180;-68
2023/01/08 04:29:03;;;;;;;14.17;6.97;;;6.20;99.90;;;;;;5034540;28;20424;-67
2023/01/08 04:31:29;;;;;;;7.63;6.13;;;6.20;99.90;;;;;;5030745;28;20183;-67
2023/01/08 04:33:55;;;;;;;8.63;6.63;;;6.20;99.90;;;;;;5025108;28;20435;-67
2023/01/08 04:36:20;;;;;;;7.47;6.67;;;6.20;99.90;;;;;;5026411;28;20469;-67
2023/01/08 04:38:46;;;;;;;6.60;5.67;;;6.20;99.90;;;;;;5021786;28;20191;-66
2023/01/08 04:41:11;;;;;;;8.43;5.73;;;6.20;99.90;;;;;;5025368;28;20210;-67
2023/01/08 04:43:37;;;;;;;6.80;6.20;;;6.20;99.90;;;;;;5027437;28;20183;-66
2023/01/08 04:46:06;;;;;;;7.30;5.80;;;6.10;99.90;;;;;;5028549;28;20187;-67
2023/01/08 04:48:32;;;;;;;9.33;7.27;;;6.10;99.90;;;;;;5025847;28;20227;-67
2023/01/08 04:50:59;;;;;;;8.70;7.03;;;6.20;99.90;;;;;;5023901;28;20469;-67
2023/01/08 04:53:25;;;;;;;7.23;6.40;;;6.10;99.90;;;;;;5025209;28;20889;-67
2023/01/08 04:55:51;;;;;;;6.57;5.50;;;6.20;99.90;;;;;;5025261;28;20471;-66
2023/01/08 04:58:16;;;;;;;14.80;8.47;;;6.20;99.90;;;;;;5027407;28;21026;-66
2023/01/08 05:00:42;;;;;;;10.47;6.50;;;6.10;99.90;;;;;;5024147;28;20287;-67
2023/01/08 05:03:07;;;;;;;6.70;6.10;;;6.20;99.90;;;;;;5024921;28;20263;-67
2023/01/08 05:05:33;;;;;;;7.60;6.80;;;6.20;99.90;;;;;;5023680;28;20781;-66
2023/01/08 05:07:59;;;;;;;7.83;7.07;;;6.20;99.90;;;;;;5028426;28;20200;-66
2023/01/08 05:10:25;;;;;;;10.20;6.17;;;6.20;99.90;;;;;;5023164;28;20431;-67
2023/01/08 05:12:50;;;;;;;6.80;6.00;;;6.30;99.90;;;;;;5025262;28;20168;-67
2023/01/08 05:15:16;;;;;;;6.73;6.03;;;6.30;99.90;;;;;;5025252;28;20851;-67
2023/01/08 05:17:42;;;;;;;7.07;6.13;;;6.30;99.90;;;;;;5024468;28;20208;-67
2023/01/08 05:20:08;;;;;;;9.73;5.47;;;6.40;99.90;;;;;;5028070;28;20682;-66
2023/01/08 05:22:34;;;;;;;10.90;7.07;;;6.40;99.90;;;;;;5023242;28;20198;-66
2023/01/08 05:24:59;;;;;;;6.50;5.90;;;6.40;99.90;;;;;;5028823;28;20438;-66
2023/01/08 05:27:26;;;;;;;8.37;6.50;;;6.40;99.90;;;;;;5038035;28;20195;-66
2023/01/08 05:29:52;;;;;;;7.70;6.10;;;6.40;99.90;;;;;;5022427;28;20188;-67
2023/01/08 05:32:18;;;;;;;8.33;6.67;;;6.40;99.90;;;;;;5027779;28;20473;-66
2023/01/08 05:34:44;;;;;;;7.00;6.40;;;6.40;99.90;;;;;;5026471;28;20272;-66
2023/01/08 05:37:10;;;;;;;8.23;6.23;;;6.40;99.90;;;;;;5027632;28;20470;-66
2023/01/08 05:39:37;;;;;;;7.50;5.87;;;6.50;99.90;;;;;;5024708;28;20430;-67
2023/01/08 05:42:03;;;;;;;7.10;5.80;;;6.50;99.90;;;;;;5021762;28;20434;-67
2023/01/08 05:44:29;;;;;;;6.67;5.67;;;6.50;99.90;;;;;;5021993;28;20438;-67
2023/01/08 05:46:55;;;;;;;7.80;6.50;;;6.60;99.90;;;;;;5021175;28;20538;-68
2023/01/08 05:49:22;;;;;;;6.33;5.27;;;6.60;99.90;;;;;;5020656;28;20184;-67
2023/01/08 05:51:48;;;;;;;7.10;5.60;;;6.70;99.90;;;;;;5023582;28;20972;-67
2023/01/08 05:54:14;;;;;;;6.33;5.67;;;6.70;99.90;;;;;;5024748;28;20430;-66
2023/01/08 05:56:42;;;;;;;7.00;6.30;;;6.70;99.90;;;;;;5021119;28;20480;-66
2023/01/08 05:59:10;;;;;;;8.17;6.87;;;6.80;99.90;;;;;;5024584;28;20211;-66
2023/01/08 06:01:36;;;;;;;5.77;5.17;;;6.80;99.90;;;;;;5025930;28;20542;-66
2023/01/08 06:04:01;;;;;;;6.27;5.63;;;6.80;99.90;;;;;;5006306;28;20427;-67
2023/01/08 06:06:27;;;;;;;6.33;5.77;;;6.90;99.90;;;;;;5024256;28;20369;-67
2023/01/08 06:08:52;;;;;;;11.70;6.53;;;6.90;99.90;;;;;;5021974;28;20205;-66
2023/01/08 06:11:18;;;;;;;6.07;5.17;;;7.00;99.90;;;;;;5025015;28;20186;-66
2023/01/08 06:13:44;;;;;;;6.93;5.13;;;7.00;99.90;;;;;;5023799;28;20183;-67
2023/01/08 06:16:09;;;;;;;6.13;5.53;;;7.10;99.90;;;;;;5018778;28;20273;-66
2023/01/08 06:18:35;;;;;;;7.23;6.27;;;7.10;99.90;;;;;;5020406;28;20215;-66
2023/01/08 06:21:03;;;;;;;5.67;5.07;;;7.10;99.90;;;;;;5023494;28;20175;-66
2023/01/08 06:23:28;;;;;;;7.27;6.57;;;7.10;99.90;;;;;;5027640;28;20183;-67
2023/01/08 06:25:56;;;;;;;6.17;5.47;;;7.20;99.90;;;;;;5015646;28;20407;-66
2023/01/08 06:28:22;;;;;;;5.80;5.27;;;7.20;99.90;;;;;;5036259;28;20192;-67
2023/01/08 06:30:48;;;;;;;5.03;4.63;;;7.20;99.90;;;;;;5035674;28;20426;-66
2023/01/08 06:33:13;;;;;;;5.53;4.90;;;7.20;99.90;;;;;;5028540;28;20438;-67
2023/01/08 06:35:39;;;;;;;6.63;5.70;;;7.20;99.90;;;;;;5011513;28;20438;-67
2023/01/08 06:38:05;;;;;;;5.70;5.17;;;7.20;99.90;;;;;;5024501;28;21061;-67
2023/01/08 06:40:30;;;;;;;6.83;5.77;;;7.20;99.90;;;;;;5027537;28;20184;-67
2023/01/08 06:43:04;;;;;;;8.50;5.47;;;7.20;99.90;;;;;;5028170;28;20211;-67
2023/01/08 06:45:30;;;;;;;5.37;4.73;;;7.20;99.90;;;;;;5029944;28;20211;-67
2023/01/08 06:48:04;;;;;;;7.27;5.53;;;7.20;99.90;;;;;;5023776;28;20872;-67
2023/01/08 06:50:29;;;;;;;5.50;4.57;;;7.20;99.90;;;;;;5029459;28;20435;-66
2023/01/08 06:52:56;;;;;;;7.13;6.20;;;7.30;99.90;;;;;;5028372;28;20837;-67
2023/01/08 06:55:22;;;;;;;6.07;5.47;;;7.30;99.90;;;;;;5028213;28;20513;-67
2023/01/08 06:57:52;;;;;;;5.37;4.83;;;7.30;99.90;;;;;;5023555;28;21864;-67
2023/01/08 07:00:18;;;;;;;7.30;5.07;;;7.30;99.90;;;;;;5028067;28;20785;-67
2023/01/08 07:02:44;;;;;;;7.20;4.80;;;7.30;99.90;;;;;;5031447;28;20437;-67
2023/01/08 07:05:09;;;;;;;5.93;5.30;;;7.30;99.90;;;;;;5027379;28;20192;-66
2023/01/08 07:07:35;;;;;;;6.97;4.70;;;7.30;99.90;;;;;;5013281;28;20553;-67
2023/01/08 07:10:00;;;;;;;4.87;4.40;;;7.30;99.90;;;;;;5028508;28;20195;-67
2023/01/08 07:12:26;;;;;;;6.13;4.70;;;7.30;99.90;;;;;;5032206;28;20180;-65
2023/01/08 07:14:52;;;;;;;5.53;4.93;;;7.30;99.90;;;;;;5029703;28;20195;-66
2023/01/08 07:17:17;;;;;;;6.67;5.13;;;7.40;99.90;;;;;;5028497;28;20341;-67
2023/01/08 07:19:43;;;;;;;5.50;5.00;;;7.40;99.90;;;;;;5008926;28;20176;-67
2023/01/08 07:22:08;;;;;;;6.90;4.87;;;7.40;99.90;;;;;;5026466;28;20178;-67
2023/01/08 07:24:34;;;;;;;4.83;4.43;;;7.40;99.90;;;;;;5029172;28;20245;-68
2023/01/08 07:26:59;;;;;;;6.53;5.37;;;7.40;99.90;;;;;;5030993;28;20197;-67
2023/01/08 07:29:26;;;;;;;18.80;13.03;;;7.40;99.90;;;;;;5030094;28;20623;-68
2023/01/08 07:31:52;;;;;;;5.60;5.00;;;7.60;99.90;;;;;;5027624;28;20206;-67
2023/01/08 07:34:17;;;;;;;6.27;5.00;;;7.60;99.90;;;;;;5027021;28;20428;-67
2023/01/08 07:36:43;;;;;;;5.40;4.90;;;7.60;99.90;;;;;;5030180;28;20467;-67
2023/01/08 07:39:08;;;;;;;4.90;4.43;;;7.60;99.90;;;;;;5025126;28;20182;-67
2023/01/08 07:41:34;;;;;;;5.80;4.50;;;7.60;99.90;;;;;;5025898;28;20541;-68
2023/01/08 07:44:00;;;;;;;5.60;4.70;;;7.60;99.90;;;;;;5021868;28;20173;-67
2023/01/08 07:46:25;;;;;;;7.20;4.10;;;7.60;99.90;;;;;;5029451;28;20180;-67
2023/01/08 07:48:51;;;;;;;4.83;4.30;;;7.60;99.90;;;;;;5026376;28;20192;-67
2023/01/08 07:51:17;;;;;;;5.37;4.87;;;7.50;99.90;;;;;;5027151;28;20179;-69
2023/01/08 07:53:42;;;;;;;6.73;5.10;;;7.60;99.90;;;;;;5025495;28;20215;-66
2023/01/08 07:56:09;;;;;;;6.00;5.17;;;7.60;99.90;;;;;;5023099;28;20200;-66
2023/01/08 07:58:35;;;;;;;5.47;4.40;;;7.50;99.90;;;;;;5025094;28;20197;-66
2023/01/08 08:01:02;;;;;;;4.87;4.47;;;7.50;99.90;;;;;;5028828;28;20506;-68
2023/01/08 08:03:27;;;;;;;6.17;4.53;;;7.50;99.90;;;;;;5029652;28;20967;-66
2023/01/08 08:05:53;;;;;;;4.47;4.07;;;7.50;99.90;;;;;;5027364;28;20431;-69
2023/01/08 08:08:18;;;;;;;8.37;4.40;;;7.60;99.90;;;;;;5028519;28;20538;-67
2023/01/08 08:10:45;;;;;;;5.60;5.07;;;7.60;99.90;;;;;;5025452;28;20256;-66
2023/01/08 08:13:11;;;;;;;5.20;4.70;;;7.60;99.90;;;;;;5028755;28;20183;-66
2023/01/08 08:15:38;;;;;;;5.10;3.90;;;7.60;99.90;;;;;;5029141;28;20431;-69
2023/01/08 08:18:05;;;;;;;4.33;3.93;;;7.60;99.90;;;;;;5031294;28;20828;-67
2023/01/08 08:20:31;;;;;;;4.77;4.17;;;7.70;99.90;;;;;;5031191;28;20403;-67
2023/01/08 08:23:01;;;;;;;6.63;4.10;;;7.70;99.90;;;;;;5030741;28;20420;-68
2023/01/08 08:25:27;;;;;;;5.20;4.70;;;7.70;99.90;;;;;;5029392;28;20405;-69
2023/01/08 08:27:58;;;;;;;7.10;5.03;;;7.70;99.90;;;;;;5031688;28;20505;-71
2023/01/08 08:30:25;;;;;;;4.40;4.00;;;7.70;99.90;;;;;;5052869;22;20303;-64
2023/01/08 08:32:51;;;;;;;6.10;4.37;;;7.80;99.90;;;;;;5030857;28;21027;-69
2023/01/08 08:35:17;;;;;;;7.23;4.43;;;7.70;99.90;;;;;;5028141;28;20510;-69
2023/01/08 08:37:42;;;;;;;5.53;4.70;;;7.80;99.90;;;;;;5043715;28;20495;-69
2023/01/08 08:40:08;;;;;;;5.53;4.30;;;7.80;99.90;;;;;;5012666;28;20257;-70
2023/01/08 08:42:34;;;;;;;4.93;4.53;;;7.80;99.90;;;;;;5022817;28;20229;-68
2023/01/08 08:45:00;;;;;;;4.77;3.60;;;7.80;99.90;;;;;;5022711;28;20447;-68
2023/01/08 08:47:25;;;;;;;5.60;4.40;;;7.80;99.90;;;;;;5022951;28;20173;-69
2023/01/08 08:49:51;;;;;;;5.23;4.73;;;7.80;99.90;;;;;;5021359;28;20220;-69
2023/01/08 08:52:16;;;;;;;4.77;4.37;;;7.90;99.90;;;;;;5029811;28;20196;-68
2023/01/08 08:54:42;;;;;;;8.83;5.27;;;7.90;99.90;;;;;;5030562;28;20173;-69
2023/01/08 08:57:08;;;;;;;4.73;4.33;;;8.00;99.90;;;;;;5030144;28;20222;-70
2023/01/08 08:59:35;;;;;;;5.13;4.50;;;8.00;99.90;;;;;;5030210;28;20264;-69
2023/01/08 09:02:01;;;;;;;7.10;5.07;;;7.90;99.90;;;;;;5030489;28;20486;-71
2023/01/08 09:04:32;;;;;;;5.00;4.20;;;8.00;99.90;;;;;;5025560;28;20463;-70
2023/01/08 09:06:58;;;;;;;4.57;4.17;;;8.00;99.90;;;;;;5028910;28;20766;-68
2023/01/08 09:09:25;;;;;;;4.93;3.97;;;8.00;99.90;;;;;;5028187;28;20424;-70
2023/01/08 09:11:52;;;;;;;5.80;3.37;;;8.00;99.90;;;;;;5029759;28;20441;-71
2023/01/08 09:14:18;;;;;;;7.37;4.67;;;8.00;99.90;;;;;;5030285;28;20885;-70
2023/01/08 09:16:44;;;;;;;4.53;4.10;;;8.10;99.90;;;;;;5030625;28;20455;-71
2023/01/08 09:19:09;;;;;;;6.80;4.40;;;8.20;99.90;;;;;;5034559;28;20428;-69
2023/01/08 09:21:35;;;;;;;5.00;4.47;;;8.20;99.90;;;;;;5019082;28;20202;-68
2023/01/08 09:24:02;;;;;;;5.83;4.50;;;8.20;99.90;;;;;;5028165;28;20207;-67
2023/01/08 09:26:29;;;;;;;4.83;4.43;;;8.30;99.90;;;;;;5029563;28;20418;-67
2023/01/08 09:28:56;;;;;;;5.00;4.17;;;8.40;99.90;;;;;;5029910;28;20425;-69
2023/01/08 09:31:22;;;;;;;8.00;4.37;;;8.50;99.90;;;;;;5030077;28;20458;-68
2023/01/08 09:33:48;;;;;;;4.97;4.47;;;8.50;99.90;;;;;;5029931;28;20411;-69
2023/01/08 09:36:13;;;;;;;6.67;4.17;;;8.50;99.90;;;;;;5030011;28;20284;-69
2023/01/08 09:38:39;;;;;;;4.77;4.07;;;8.50;99.90;;;;;;5026671;28;20189;-69
2023/01/08 09:41:10;;;;;;;4.90;4.40;;;8.50;99.90;;;;;;5027113;28;20290;-69
2023/01/08 09:43:39;;;;;;;6.40;4.73;;;8.50;99.90;;;;;;5029664;28;20173;-69
2023/01/08 09:46:06;;;;;;;5.23;4.03;;;8.50;99.90;;;;;;5028519;28;20906;-69
2023/01/08 09:48:36;;;;;;;4.30;3.83;;;8.50;99.90;;;;;;5029799;28;20418;-71
2023/01/08 09:51:02;;;;;;;5.50;3.90;;;8.40;99.90;;;;;;5028896;28;20433;-71
2023/01/08 09:53:28;;;;;;;4.27;3.83;;;8.40;99.90;;;;;;5030537;28;20509;-69
2023/01/08 09:56:03;;;;;;;3.60;3.30;;;8.40;99.90;;;;;;5030635;28;20876;-69
2023/01/08 09:58:37;;;;;;;5.63;4.60;;;8.40;99.90;;;;;;5030422;28;20547;-69
2023/01/08 10:01:04;;;;;;;4.80;4.23;;;8.40;99.90;;;;;;5027783;28;20828;-68
2023/01/08 10:03:39;;;;;;;7.00;4.97;;;8.40;99.90;;;;;;5032282;28;20548;-69
2023/01/08 10:06:12;;;;;;;6.00;4.87;;;8.40;99.90;;;;;;5033824;28;20431;-69
2023/01/08 10:08:38;;;;;;;7.07;4.00;;;8.40;99.90;;;;;;5034062;28;20412;-69
2023/01/08 10:11:05;;;;;;;7.30;4.47;;;8.40;99.90;;;;;;5033983;28;20763;-70
2023/01/08 10:13:33;;;;;;;6.53;4.63;;;8.40;99.90;;;;;;5033923;28;20422;-70
2023/01/08 10:15:59;;;;;;;5.37;4.87;;;8.30;99.90;;;;;;5033384;28;20447;-70
2023/01/08 10:18:27;;;;;;;5.57;4.80;;;8.30;99.90;;;;;;5028483;28;20436;-69
2023/01/08 10:20:53;;;;;;;5.40;4.33;;;8.40;99.90;;;;;;5032007;28;20213;-70
2023/01/08 10:23:21;;;;;;;4.53;4.20;;;8.30;99.90;;;;;;5026295;28;20413;-69
2023/01/08 10:25:53;;;;;;;6.13;4.10;;;8.40;99.90;;;;;;5033253;28;20316;-69
2023/01/08 10:28:34;;;;;;;6.20;4.60;;;8.40;99.90;;;;;;5033177;28;20830;-69
2023/01/08 10:31:09;;;;;;;7.83;4.43;;;8.30;99.90;;;;;;5032571;28;20451;-69
2023/01/08 10:33:53;;;;;;;6.50;4.33;;;8.30;99.90;;;;;;5027799;28;21412;-69
2023/01/08 10:36:22;;;;;;;6.27;4.80;;;8.30;99.90;;;;;;5029392;28;21008;-70
2023/01/08 10:38:59;;;;;;;5.53;3.77;;;8.30;99.90;;;;;;5018180;28;20402;-71
2023/01/08 10:41:26;;;;;;;4.70;3.93;;;8.30;99.90;;;;;;5014070;28;20441;-71
2023/01/08 10:43:55;;;;;;;7.10;4.70;;;8.30;99.90;;;;;;5032691;28;20414;-70
2023/01/08 10:46:24;;;;;;;6.60;5.43;;;8.30;99.90;;;;;;5032920;28;20491;-69
2023/01/08 10:48:54;;;;;;;5.20;4.07;;;8.30;99.90;;;;;;5032567;28;20408;-67
2023/01/08 10:51:28;;;;;;;5.20;3.77;;;8.30;99.90;;;;;;5024877;28;20467;-69
2023/01/08 10:53:57;;;;;;;5.10;4.07;;;8.30;99.90;;;;;;5032362;28;20520;-68
2023/01/08 10:56:39;;;;;;;5.73;4.30;;;8.40;99.90;;;;;;5032658;28;20614;-69
2023/01/08 10:59:04;;;;;;;6.17;5.47;;;8.40;99.90;;;;;;5024824;28;20441;-68
2023/01/08 11:01:31;;;;;;;5.40;4.33;;;8.30;99.90;;;;;;5026705;28;20529;-68
2023/01/08 11:04:00;;;;;;;7.23;5.23;;;8.40;99.90;;;;;;5029597;28;20616;-69
2023/01/08 11:06:30;;;;;;;5.10;4.60;;;8.30;99.90;;;;;;5028169;28;20485;-70
2023/01/08 11:09:01;;;;;;;5.03;4.03;;;8.30;99.90;;;;;;5020259;28;20428;-69
2023/01/08 11:11:37;;;;;;;7.97;4.77;;;8.30;99.90;;;;;;5032122;28;20436;-68
2023/01/08 11:14:10;;;;;;;5.23;4.70;;;8.30;99.90;;;;;;5031541;28;20532;-67
2023/01/08 11:16:39;;;;;;;5.00;4.00;;;8.40;99.90;;;;;;5032241;28;20536;-69
2023/01/08 11:19:19;;;;;;;5.97;5.33;;;8.50;99.90;;;;;;5037201;28;20436;-69
2023/01/08 11:21:56;;;;;;;6.83;4.67;;;8.50;99.90;;;;;;5021231;28;20501;-71
2023/01/08 11:24:31;;;;;;;8.00;5.07;;;8.60;99.90;;;;;;5032208;28;20417;-69
2023/01/08 11:27:03;;;;;;;4.60;4.20;;;8.70;99.90;;;;;;5029605;28;20459;-70
2023/01/08 11:30:00;;;;;;;4.40;3.93;;;8.70;99.90;;;;;;5026824;28;20418;-69
2023/01/08 11:32:39;;;;;;;5.30;4.80;;;8.70;99.90;;;;;;5032337;28;20919;-68
2023/01/08 11:35:12;;;;;;;5.53;4.93;;;8.80;99.90;;;;;;5027472;28;20650;-69
2023/01/08 11:37:44;;;;;;;5.50;4.30;;;8.80;99.90;;;;;;5028264;28;20601;-69
2023/01/08 11:40:13;;;;;;;6.00;4.27;;;8.90;99.90;;;;;;5014219;28;20418;-69
2023/01/08 11:43:06;;;;;;;5.30;4.40;;;8.80;99.90;;;;;;5031979;28;20407;-70
2023/01/08 11:45:54;;;;;;;6.13;4.60;;;8.90;99.90;;;;;;5031467;28;20410;-68
2023/01/08 11:48:25;;;;;;;5.63;5.13;;;8.90;99.90;;;;;;5031842;28;20471;-68
2023/01/08 11:51:06;;;;;;;5.27;4.80;;;8.90;99.90;;;;;;5032166;28;20429;-72
2023/01/08 11:53:50;;;;;;;5.17;4.67;;;8.90;99.90;;;;;;5032829;28;20505;-69
2023/01/08 11:56:35;;;;;;;5.57;4.87;;;9.00;99.90;;;;;;5011456;28;20520;-68
2023/01/08 11:59:07;;;;;;;6.57;4.60;;;9.00;99.90;;;;;;5027982;28;20507;-68
2023/01/08 12:02:06;;;;;;;5.87;5.33;;;9.00;99.90;;;;;;5031210;28;20443;-68
2023/01/08 12:04:43;;;;;;;6.77;4.87;;;9.00;99.90;;;;;;5030261;28;20426;-69
2023/01/08 12:07:29;;;;;;;6.60;6.00;;;9.00;99.90;;;;;;5031360;28;20744;-69
2023/01/08 12:10:23;;;;;;;5.10;4.03;;;8.90;99.90;;;;;;5024786;28;20512;-69
2023/01/08 12:13:06;;;;;;;4.93;3.80;;;9.00;99.90;;;;;;5029318;28;20421;-69
2023/01/08 12:15:50;;;;;;;7.20;4.97;;;9.00;99.90;;;;;;5031051;28;20491;-68
2023/01/08 12:18:34;;;;;;;5.23;4.73;;;9.20;99.90;;;;;;5032847;28;20406;-69
2023/01/08 12:21:05;;;;;;;5.93;5.37;;;9.20;99.90;;;;;;5030861;28;20422;-68
2023/01/08 12:23:49;;;;;;;6.50;4.50;;;9.20;99.90;;;;;;5031209;28;20432;-70
2023/01/08 12:26:40;;;;;;;4.83;4.43;;;9.20;99.90;;;;;;5012059;28;20416;-69
2023/01/08 12:29:32;;;;;;;8.03;4.80;;;9.30;99.90;;;;;;5025006;28;20414;-70
2023/01/08 12:32:21;;;;;;;7.17;5.87;;;9.30;99.90;;;;;;5025070;28;20946;-70
2023/01/08 12:35:12;;;;;;;5.47;4.37;;;9.20;99.90;;;;;;5028156;28;21023;-69
2023/01/08 12:37:41;;;;;;;7.03;4.70;;;9.40;99.90;;;;;;5033130;28;20458;-67
2023/01/08 12:40:15;;;;;;;5.00;4.40;;;9.30;99.90;;;;;;5030804;28;20779;-66
2023/01/08 12:42:44;;;;;;;5.43;4.93;;;9.20;99.90;;;;;;5031192;28;20865;-69
2023/01/08 12:45:25;;;;;;;5.87;5.27;;;9.30;99.90;;;;;;5030561;28;20861;-69
2023/01/08 12:47:57;;;;;;;6.17;5.57;;;9.30;99.90;;;;;;5020746;28;20760;-70
2023/01/08 12:50:36;;;;;;;5.10;4.03;;;9.30;99.90;;;;;;5008829;28;20441;-69
2023/01/08 12:53:14;;;;;;;5.60;4.90;;;9.30;99.90;;;;;;5030783;28;20511;-70
2023/01/08 12:56:02;;;;;;;5.73;5.23;;;9.20;99.90;;;;;;5028307;28;20446;-70
2023/01/08 12:58:36;;;;;;;4.70;4.30;;;9.20;99.90;;;;;;5027098;28;20422;-68
2023/01/08 13:01:12;;;;;;;5.17;3.90;;;9.20;99.90;;;;;;5025765;28;20426;-69
2023/01/08 13:03:38;;;;;;;6.87;5.20;;;9.20;99.90;;;;;;5030592;28;20405;-69
2023/01/08 13:06:14;;;;;;;5.10;4.50;;;9.20;99.90;;;;;;5011270;28;20401;-70
2023/01/08 13:08:45;;;;;;;5.00;4.50;;;9.10;99.90;;;;;;5012863;28;20509;-72
2023/01/08 13:11:11;;;;;;;5.20;4.70;;;9.10;99.90;;;;;;5017823;28;20795;-70